Time;durP1;ratioP1;P1;durP2;ratioP2;P2;SDS_P1;SDS_P2;PMS_P1;PMS_P2;Temp;Humidity;BMP_temperature;BMP_pressure;BME280_temperature;BME280_humidity;BME280_pressure;Samples;Min_cycle;Max_cycle;Signal;HPM_P1;HPM_P2
2024/03/14 00:00:21;;;;;;;9.40;5.73;;;;;;;6.29;100.00;101028.81;5015679;28;20215;-70
2024/03/14 00:02:47;;;;;;;10.63;5.97;;;;;;;6.33;100.00;101027.94;5012193;28;20205;-70
2024/03/14 00:05:14;;;;;;;9.67;5.53;;;;;;;6.39;100.00;101024.19;5015509;28;20230;-70
2024/03/14 00:07:41;;;;;;;9.63;5.93;;;;;;;6.45;100.00;101017.00;5019711;28;20628;-70
2024/03/14 00:10:09;;;;;;;13.57;6.20;;;;;;;6.50;100.00;101014.28;5023175;28;20249;-71
2024/03/14 00:12:35;;;;;;;13.43;6.40;;;;;;;6.57;100.00;101022.59;5016698;28;20255;-71
2024/03/14 00:15:03;;;;;;;10.00;6.03;;;;;;;6.62;100.00;101015.41;5017825;28;20239;-70
2024/03/14 00:17:32;;;;;;;10.47;6.10;;;;;;;6.66;100.00;101015.59;5017703;28;20976;-71
2024/03/14 00:20:00;;;;;;;9.20;5.67;;;;;;;6.71;100.00;101015.50;5009391;28;20236;-70
2024/03/14 00:22:26;;;;;;;9.17;6.20;;;;;;;6.76;100.00;101008.34;5004155;28;20250;-70
2024/03/14 00:24:53;;;;;;;8.40;6.03;;;;;;;6.81;100.00;101017.97;5014109;28;20715;-71
2024/03/14 00:27:20;;;;;;;8.40;5.87;;;;;;;6.85;100.00;101005.81;5019502;28;20240;-71
2024/03/14 00:29:46;;;;;;;10.37;5.77;;;;;;;6.89;100.00;101006.81;5017736;28;20200;-71
2024/03/14 00:32:13;;;;;;;8.50;5.53;;;;;;;6.93;100.00;101003.31;5011742;28;20568;-71
2024/03/14 00:34:41;;;;;;;9.70;5.97;;;;;;;6.96;100.00;101001.94;5014528;28;20232;-70
2024/03/14 00:37:08;;;;;;;10.03;5.80;;;;;;;6.99;100.00;101012.63;5020201;28;20217;-70
2024/03/14 00:39:35;;;;;;;12.70;6.43;;;;;;;7.04;100.00;101009.16;5018921;28;20196;-70
2024/03/14 00:42:03;;;;;;;8.50;5.47;;;;;;;7.06;100.00;101007.00;5015084;28;20560;-71
2024/03/14 00:44:30;;;;;;;8.67;5.33;;;;;;;7.09;100.00;101012.44;5015234;28;20243;-71
2024/03/14 00:46:57;;;;;;;9.90;5.77;;;;;;;7.11;100.00;101014.78;5013996;28;20283;-70
2024/03/14 00:49:24;;;;;;;10.17;6.13;;;;;;;7.13;100.00;101012.63;5004916;28;20195;-70
2024/03/14 00:51:51;;;;;;;13.10;6.53;;;;;;;7.14;100.00;101001.84;5011849;28;20603;-70
2024/03/14 00:54:17;;;;;;;8.47;5.97;;;;;;;7.16;100.00;101006.81;5011464;28;20226;-70
2024/03/14 00:56:46;;;;;;;9.00;5.97;;;;;;;7.17;100.00;101006.53;5002562;28;20307;-71
2024/03/14 00:59:13;;;;;;;10.80;5.87;;;;;;;7.18;100.00;101000.22;5012757;28;20191;-71
2024/03/14 01:01:43;;;;;;;7.97;5.67;;;;;;;7.20;100.00;100997.28;5014114;28;20212;-70
2024/03/14 01:04:09;;;;;;;9.00;5.80;;;;;;;7.21;100.00;100996.22;5013295;28;20316;-70
2024/03/14 01:06:38;;;;;;;8.57;5.50;;;;;;;7.22;100.00;101006.44;5016126;28;20209;-71
2024/03/14 01:09:11;;;;;;;9.53;6.70;;;;;;;7.22;100.00;100997.78;5016692;28;20201;-71
2024/03/14 01:11:37;;;;;;;11.13;6.27;;;;;;;7.23;100.00;100996.69;5017014;28;20288;-70
2024/03/14 01:14:06;;;;;;;11.27;6.90;;;;;;;7.24;100.00;100982.47;5019350;28;20228;-70
2024/03/14 01:16:32;;;;;;;10.50;6.50;;;;;;;7.24;100.00;100987.72;5012346;28;20313;-70
2024/03/14 01:18:59;;;;;;;9.27;5.77;;;;;;;7.24;100.00;100987.72;5012021;28;20455;-70
2024/03/14 01:21:26;;;;;;;9.50;5.57;;;;;;;7.25;100.00;100987.44;5017081;28;20285;-71
2024/03/14 01:23:52;;;;;;;9.30;5.70;;;;;;;7.26;100.00;100982.97;5020098;28;20694;-71
2024/03/14 01:26:20;;;;;;;8.53;5.40;;;;;;;7.26;100.00;100977.72;5013952;28;20199;-71
2024/03/14 01:28:46;;;;;;;8.53;6.07;;;;;;;7.27;100.00;100979.28;5013928;28;20205;-71
2024/03/14 01:31:14;;;;;;;11.10;6.03;;;;;;;7.28;100.00;100981.63;5018649;28;20235;-71
2024/03/14 01:33:41;;;;;;;9.83;5.80;;;;;;;7.28;100.00;100971.13;5017184;28;20697;-70
2024/03/14 01:36:08;;;;;;;10.40;6.20;;;;;;;7.30;100.00;100981.34;5015135;28;20367;-70
2024/03/14 01:38:35;;;;;;;8.27;5.63;;;;;;;7.31;100.00;100972.38;5018412;28;20245;-70
2024/03/14 01:41:01;;;;;;;8.00;5.90;;;;;;;7.30;100.00;100971.59;5013109;28;20214;-70
2024/03/14 01:43:28;;;;;;;8.70;6.47;;;;;;;7.31;100.00;100970.50;5013570;28;20197;-70
2024/03/14 01:45:57;;;;;;;10.53;6.23;;;;;;;7.32;100.00;100968.69;5012314;28;20217;-70
2024/03/14 01:48:23;;;;;;;9.53;6.70;;;;;;;7.33;100.00;100968.38;5012265;28;20242;-70
2024/03/14 01:50:50;;;;;;;10.37;6.63;;;;;;;7.33;100.00;100962.34;5014926;28;20208;-70
2024/03/14 01:53:16;;;;;;;10.73;6.43;;;;;;;7.32;100.00;100951.06;5009008;28;20208;-70
2024/03/14 01:55:43;;;;;;;10.60;6.93;;;;;;;7.35;100.00;100957.59;5016928;28;20233;-70
2024/03/14 01:58:09;;;;;;;9.37;6.60;;;;;;;7.34;100.00;100956.81;5015273;28;20225;-71
2024/03/14 02:00:36;;;;;;;8.40;6.13;;;;;;;7.35;100.00;100955.72;5011079;28;20216;-71
2024/03/14 02:03:02;;;;;;;8.47;5.50;;;;;;;7.36;100.00;100953.88;5018676;28;20207;-70
2024/03/14 02:05:29;;;;;;;9.27;6.17;;;;;;;7.37;100.00;100958.84;5009518;28;20216;-71
2024/03/14 02:07:55;;;;;;;9.00;6.03;;;;;;;7.38;100.00;100947.28;5016473;28;20194;-71
2024/03/14 02:10:24;;;;;;;8.43;6.17;;;;;;;7.38;100.00;100943.84;5009803;28;20560;-71
2024/03/14 02:16:38;;;;;;;10.30;6.53;;;;;;;7.40;100.00;100939.09;5031876;28;20750;-71
2024/03/14 02:19:07;;;;;;;9.20;6.13;;;;;;;7.40;100.00;100934.59;5013035;28;20199;-70
2024/03/14 02:21:34;;;;;;;9.67;6.07;;;;;;;7.41;100.00;100933.53;5013478;28;20226;-71
2024/03/14 02:24:02;;;;;;;9.40;6.00;;;;;;;7.40;100.00;100934.59;5017008;28;20268;-71
2024/03/14 02:26:28;;;;;;;8.43;6.13;;;;;;;7.41;100.00;100927.50;5017399;28;20194;-71
2024/03/14 02:28:55;;;;;;;9.60;6.97;;;;;;;7.41;100.00;100927.50;5016909;28;20562;-71
2024/03/14 02:31:21;;;;;;;10.97;7.30;;;;;;;7.42;100.00;100926.44;5014677;28;20204;-71
2024/03/14 02:33:48;;;;;;;9.30;6.30;;;;;;;7.43;100.00;100934.03;5016862;28;20205;-71
2024/03/14 02:36:15;;;;;;;8.20;5.33;;;;;;;7.44;100.00;100932.16;5008077;28;20215;-71
2024/03/14 02:38:43;;;;;;;9.10;6.43;;;;;;;7.45;100.00;100939.00;5011236;28;20209;-71
2024/03/14 02:41:10;;;;;;;8.63;6.03;;;;;;;7.46;100.00;100936.03;5011649;28;20205;-70
2024/03/14 02:43:37;;;;;;;10.60;6.33;;;;;;;7.48;100.00;100930.50;5014423;28;20203;-71
2024/03/14 02:46:03;;;;;;;9.67;6.33;;;;;;;7.49;100.00;100938.09;5014827;28;20766;-70
2024/03/14 02:48:30;;;;;;;10.17;6.37;;;;;;;7.51;100.00;100940.44;4995246;28;20208;-71
2024/03/14 02:50:57;;;;;;;8.30;6.40;;;;;;;7.53;100.00;100933.81;5019635;28;20288;-71
2024/03/14 02:53:23;;;;;;;8.07;5.97;;;;;;;7.55;100.00;100936.91;5007916;28;20289;-70
2024/03/14 02:55:50;;;;;;;10.13;6.93;;;;;;;7.57;100.00;100937.38;5014710;28;20248;-71
2024/03/14 02:58:16;;;;;;;7.67;5.80;;;;;;;7.60;100.00;100941.25;5013089;28;20211;-71
2024/03/14 03:00:46;;;;;;;10.47;6.93;;;;;;;7.61;100.00;100938.34;5018362;28;20236;-71
2024/03/14 03:03:13;;;;;;;10.40;6.10;;;;;;;7.63;100.00;100938.06;5012527;28;20210;-71
2024/03/14 03:05:39;;;;;;;9.00;6.73;;;;;;;7.65;100.00;100936.69;5023694;28;20290;-71
2024/03/14 03:08:07;;;;;;;11.00;5.60;;;;;;;7.68;100.00;100936.09;5019732;28;20278;-71
2024/03/14 03:10:33;;;;;;;9.73;6.80;;;;;;;7.70;100.00;100936.56;5011455;28;20627;-71
2024/03/14 03:13:00;;;;;;;9.77;6.60;;;;;;;7.72;100.00;100944.16;5024970;28;20226;-71
2024/03/14 03:15:26;;;;;;;8.30;6.27;;;;;;;7.73;100.00;100938.63;5001443;28;20716;-70
2024/03/14 03:17:53;;;;;;;10.23;6.23;;;;;;;7.75;100.00;100931.19;5013393;28;20219;-70
2024/03/14 03:20:19;;;;;;;9.07;6.20;;;;;;;7.77;100.00;100931.66;5015921;28;20202;-70
2024/03/14 03:23:08;;;;;;;9.77;6.70;;;;;;;7.80;100.00;100938.97;5027470;28;20216;-70
2024/03/14 03:25:33;;;;;;;9.17;6.23;;;;;;;7.82;100.00;100936.06;5020130;28;20225;-70
2024/03/14 03:28:00;;;;;;;9.27;6.20;;;;;;;7.84;100.00;100933.91;5015447;28;20186;-70
2024/03/14 03:30:26;;;;;;;12.03;6.40;;;;;;;7.85;100.00;100930.97;5015773;28;20563;-71
2024/03/14 03:32:52;;;;;;;8.37;6.37;;;;;;;7.88;100.00;100934.84;5015381;28;20196;-71
2024/03/14 03:35:21;;;;;;;9.27;6.30;;;;;;;7.89;100.00;100937.19;5018210;28;20226;-71
2024/03/14 03:37:47;;;;;;;8.07;6.10;;;;;;;7.91;100.00;100940.28;5014867;28;20627;-70
2024/03/14 03:40:15;;;;;;;10.57;6.43;;;;;;;7.92;100.00;100938.44;5016560;28;20207;-70
2024/03/14 03:42:41;;;;;;;8.37;6.17;;;;;;;7.95;100.00;100929.94;5012888;28;20200;-71
2024/03/14 03:45:10;;;;;;;10.63;7.10;;;;;;;7.96;100.00;100934.13;5003360;28;20222;-71
2024/03/14 03:47:36;;;;;;;11.57;7.10;;;;;;;7.97;100.00;100933.06;5017492;28;20198;-70
2024/03/14 03:50:03;;;;;;;10.00;6.20;;;;;;;7.99;100.00;100930.91;5014351;28;20915;-70
2024/03/14 03:52:29;;;;;;;10.17;6.50;;;;;;;8.00;100.00;100929.81;5011095;28;20211;-70
2024/03/14 03:54:55;;;;;;;10.97;7.10;;;;;;;8.01;100.00;100932.16;5014149;28;20232;-70
2024/03/14 03:57:21;;;;;;;10.83;7.13;;;;;;;8.04;100.00;100930.78;5008662;28;20221;-71
2024/03/14 03:59:48;;;;;;;8.40;6.13;;;;;;;8.04;100.00;100931.56;5012365;28;20215;-71
2024/03/14 04:02:17;;;;;;;9.17;6.70;;;;;;;8.04;100.00;100923.69;5013904;28;20293;-71
2024/03/14 04:04:44;;;;;;;10.93;7.40;;;;;;;8.05;100.00;100933.13;5017438;28;20261;-71
2024/03/14 04:07:10;;;;;;;9.53;6.73;;;;;;;8.06;100.00;100932.03;5011753;28;20187;-71
2024/03/14 04:09:37;;;;;;;7.67;5.63;;;;;;;8.07;100.00;100930.97;5010559;28;20662;-70
2024/03/14 04:12:03;;;;;;;10.93;6.43;;;;;;;8.07;100.00;100924.94;5011886;28;20648;-71
2024/03/14 04:14:29;;;;;;;11.73;7.13;;;;;;;8.07;100.00;100935.47;5011489;28;20230;-70
2024/03/14 04:16:56;;;;;;;9.73;7.33;;;;;;;8.07;100.00;100938.84;5009569;28;20221;-71
2024/03/14 04:19:22;;;;;;;9.00;6.80;;;;;;;8.07;100.00;100936.22;5011257;28;20206;-70
2024/03/14 04:21:49;;;;;;;15.83;7.93;;;;;;;8.07;100.00;100930.19;5010130;28;20313;-71
2024/03/14 04:24:17;;;;;;;10.27;7.17;;;;;;;8.07;100.00;100935.47;5013652;28;20261;-71
2024/03/14 04:26:44;;;;;;;14.10;7.80;;;;;;;8.07;100.00;100936.22;4999296;28;20200;-71
2024/03/14 04:29:11;;;;;;;11.97;7.20;;;;;;;8.08;100.00;100937.00;5014511;28;20290;-71
2024/03/14 04:31:37;;;;;;;9.97;7.90;;;;;;;8.07;100.00;100930.19;5010574;28;20618;-71
2024/03/14 04:34:04;;;;;;;9.40;7.20;;;;;;;8.06;100.00;100931.25;5011815;28;20703;-71
2024/03/14 04:36:33;;;;;;;11.13;7.53;;;;;;;8.07;100.00;100938.09;5010373;28;20199;-71
2024/03/14 04:38:59;;;;;;;12.07;7.80;;;;;;;8.06;100.00;100932.03;5015760;28;20203;-71
2024/03/14 04:41:28;;;;;;;9.97;7.00;;;;;;;8.06;100.00;100937.31;5011125;28;20199;-71
2024/03/14 04:43:54;;;;;;;12.43;8.17;;;;;;;8.05;100.00;100935.75;5011331;28;20202;-71
2024/03/14 04:46:21;;;;;;;13.73;7.90;;;;;;;8.06;100.00;100936.53;5013836;28;20203;-71
2024/03/14 04:48:51;;;;;;;13.40;8.37;;;;;;;8.07;100.00;100932.84;4995008;28;20246;-71
2024/03/14 04:51:18;;;;;;;15.33;8.27;;;;;;;8.06;100.00;100937.31;5013007;28;20210;-71
2024/03/14 04:53:47;;;;;;;13.23;8.43;;;;;;;8.06;100.00;100942.56;5011594;28;20203;-71
2024/03/14 04:56:14;;;;;;;13.50;8.97;;;;;;;8.06;100.00;100942.56;5011073;28;20203;-71
2024/03/14 04:58:42;;;;;;;13.20;9.63;;;;;;;8.06;100.00;100939.16;5006360;28;20243;-71
2024/03/14 05:01:08;;;;;;;11.90;7.80;;;;;;;8.06;100.00;100941.78;5015025;28;20289;-71
2024/03/14 05:03:35;;;;;;;13.40;8.63;;;;;;;8.07;100.00;100952.00;5007092;28;20268;-71
2024/03/14 05:06:03;;;;;;;14.03;9.17;;;;;;;8.07;100.00;100949.38;5008470;28;20229;-71
2024/03/14 05:08:29;;;;;;;12.70;8.40;;;;;;;8.07;100.00;100940.72;5007711;28;20209;-71
2024/03/14 05:10:59;;;;;;;12.23;8.63;;;;;;;8.08;100.00;100950.91;4994720;28;20209;-71
2024/03/14 05:13:26;;;;;;;13.23;9.23;;;;;;;8.09;100.00;100944.59;5010713;28;20199;-71
2024/03/14 05:15:52;;;;;;;13.33;8.83;;;;;;;8.09;100.00;100949.06;5009666;28;20214;-71
2024/03/14 05:18:19;;;;;;;12.23;8.63;;;;;;;8.10;100.00;100945.38;5008736;28;20215;-71
2024/03/14 05:20:45;;;;;;;11.57;8.90;;;;;;;8.10;100.00;100942.75;5010034;28;20210;-71
2024/03/14 05:23:12;;;;;;;14.33;8.93;;;;;;;8.10;100.00;100934.84;5009493;28;20232;-71
2024/03/14 05:25:39;;;;;;;14.23;9.63;;;;;;;8.11;100.00;100939.03;5007769;28;20222;-71
2024/03/14 05:28:06;;;;;;;12.80;9.57;;;;;;;8.11;100.00;100931.94;5009973;28;20324;-71
2024/03/14 05:30:32;;;;;;;13.27;9.27;;;;;;;8.13;100.00;100939.53;5009264;28;20288;-71
2024/03/14 05:33:00;;;;;;;15.43;8.63;;;;;;;8.13;100.00;100942.91;5010066;28;20826;-71
2024/03/14 05:35:26;;;;;;;13.67;9.43;;;;;;;8.14;100.00;100933.19;5009040;28;20225;-71
2024/03/14 05:37:53;;;;;;;16.17;10.40;;;;;;;8.16;100.00;100931.00;5019859;28;20217;-71
2024/03/14 05:40:20;;;;;;;14.07;10.40;;;;;;;8.19;100.00;100940.94;5005328;28;20208;-70
2024/03/14 05:46:35;;;;;;;17.37;11.10;;;;;;;8.22;100.00;100940.34;5027309;28;20185;-70
2024/03/14 05:49:03;;;;;;;21.10;12.77;;;;;;;8.24;100.00;100936.34;5014543;28;20715;-71
2024/03/14 05:51:29;;;;;;;16.47;11.90;;;;;;;8.25;100.00;100934.50;5012957;28;20203;-71
2024/03/14 05:53:56;;;;;;;21.10;12.13;;;;;;;8.27;100.00;100935.75;5008936;28;20230;-71
2024/03/14 06:00:44;;;;;;;16.97;12.20;;;;;;;8.34;100.00;100935.34;5024175;28;20766;-71
2024/03/14 06:06:58;;;;;;;18.33;12.00;;;;;;;8.39;100.00;100930.72;5025908;28;20700;-71
2024/03/14 06:09:39;;;;;;;19.43;12.87;;;;;;;8.41;100.00;100933.84;5024143;28;20209;-71
2024/03/14 06:12:06;;;;;;;18.17;11.43;;;;;;;8.44;100.00;100940.34;5017815;28;20207;-71
2024/03/14 06:14:33;;;;;;;19.47;12.57;;;;;;;8.46;100.00;100933.72;5010089;28;20310;-71
2024/03/14 06:17:00;;;;;;;17.67;11.03;;;;;;;8.48;100.00;100933.38;5010008;28;20678;-71
2024/03/14 06:19:27;;;;;;;18.50;12.07;;;;;;;8.50;100.00;100925.97;5026043;28;20725;-71
2024/03/14 06:21:53;;;;;;;15.53;10.80;;;;;;;8.55;100.00;100939.00;5007251;28;20214;-71
2024/03/14 06:24:20;;;;;;;16.03;11.77;;;;;;;8.57;100.00;100937.63;5006509;28;20220;-71
2024/03/14 06:26:49;;;;;;;17.37;12.73;;;;;;;8.61;100.00;100935.94;5010273;28;20215;-71
2024/03/14 06:29:16;;;;;;;17.07;11.40;;;;;;;8.64;100.00;100931.94;4990485;28;20200;-71
2024/03/14 06:31:43;;;;;;;17.23;11.87;;;;;;;8.67;100.00;100941.84;5010282;28;20243;-71
2024/03/14 06:34:09;;;;;;;18.93;12.57;;;;;;;8.71;100.00;100942.78;5009073;28;20232;-71
2024/03/14 06:36:36;;;;;;;22.97;17.60;;;;;;;8.75;100.00;100941.13;5009506;28;20247;-71
2024/03/14 06:39:06;;;;;;;16.77;12.00;;;;;;;8.78;100.00;100941.28;5022555;28;20219;-71
2024/03/14 06:41:32;;;;;;;19.07;13.70;;;;;;;8.82;100.00;100947.50;5014413;28;20199;-71
2024/03/14 06:43:59;;;;;;;19.77;14.33;;;;;;;8.85;100.00;100941.59;5011381;28;20204;-71
2024/03/14 06:46:26;;;;;;;18.30;13.77;;;;;;;8.89;100.00;100947.03;5012928;28;20214;-71
2024/03/14 06:48:54;;;;;;;21.93;13.50;;;;;;;8.93;100.00;100959.31;5012098;28;20198;-71
2024/03/14 06:51:20;;;;;;;20.97;12.83;;;;;;;8.96;100.00;100955.28;5014473;28;20207;-71
2024/03/14 06:53:47;;;;;;;19.27;13.23;;;;;;;9.01;100.00;100947.25;5015718;28;20208;-71
2024/03/14 06:56:15;;;;;;;18.43;13.33;;;;;;;9.04;100.00;100957.16;5017707;28;20212;-71
2024/03/14 06:58:41;;;;;;;19.03;13.27;;;;;;;9.09;100.00;100957.00;5012931;28;20684;-71
2024/03/14 07:01:08;;;;;;;20.00;13.07;;;;;;;9.12;100.00;100956.41;5013588;28;20209;-71
2024/03/14 07:03:35;;;;;;;21.37;13.90;;;;;;;9.17;100.00;100959.66;5009196;28;20351;-71
2024/03/14 07:06:01;;;;;;;19.33;13.13;;;;;;;9.19;100.00;100957.53;5015388;28;20583;-71
2024/03/14 07:08:28;;;;;;;21.37;13.93;;;;;;;9.25;100.00;100963.41;5016283;28;20211;-71
2024/03/14 07:10:55;;;;;;;20.30;13.57;;;;;;;9.28;100.00;100960.97;5017649;28;20207;-71
2024/03/14 07:13:21;;;;;;;22.43;13.57;;;;;;;9.31;100.00;100955.06;5009725;28;20232;-71
2024/03/14 07:15:48;;;;;;;24.27;15.80;;;;;;;9.36;100.00;100954.91;5016253;28;20308;-71
2024/03/14 07:18:16;;;;;;;21.17;14.83;;;;;;;9.41;100.00;100961.88;5010193;28;20567;-71
2024/03/14 07:20:44;;;;;;;22.57;15.27;;;;;;;9.44;100.00;100964.72;5010353;28;20208;-71
2024/03/14 07:23:11;;;;;;;19.33;13.47;;;;;;;9.49;100.00;100971.69;5011426;28;20207;-71
2024/03/14 07:25:37;;;;;;;19.63;13.50;;;;;;;9.51;100.00;100975.56;5016984;28;20231;-71
2024/03/14 07:28:05;;;;;;;23.13;13.30;;;;;;;9.54;100.00;100974.97;5019146;28;20568;-71
2024/03/14 07:30:34;;;;;;;21.07;13.37;;;;;;;9.57;100.00;100979.59;5011206;28;20208;-71
2024/03/14 07:33:01;;;;;;;20.33;13.63;;;;;;;9.60;100.00;100980.84;5010218;28;20319;-71
2024/03/14 07:35:28;;;;;;;21.30;12.77;;;;;;;9.63;100.00;100985.50;5009336;28;20277;-71
2024/03/14 07:37:54;;;;;;;20.53;12.77;;;;;;;9.66;100.00;100988.31;5006996;28;20582;-71
2024/03/14 07:40:30;;;;;;;20.73;13.03;;;;;;;9.71;100.00;100990.78;5010145;28;20675;-71
2024/03/14 07:42:57;;;;;;;22.60;13.87;;;;;;;9.76;100.00;100993.28;5012851;28;20217;-71
2024/03/14 07:45:23;;;;;;;21.43;14.30;;;;;;;9.83;100.00;100990.19;5010611;28;20316;-71
2024/03/14 07:47:52;;;;;;;22.13;13.93;;;;;;;9.91;100.00;100982.25;5012261;28;20203;-71
2024/03/14 07:50:18;;;;;;;24.97;14.93;;;;;;;9.99;100.00;100992.03;5012917;28;20236;-71
2024/03/14 07:52:45;;;;;;;26.50;14.60;;;;;;;10.09;100.00;100988.34;5012613;28;20210;-71
2024/03/14 07:55:12;;;;;;;24.73;15.97;;;;;;;10.19;100.00;100991.41;5012602;28;20225;-71
2024/03/14 07:57:38;;;;;;;24.90;15.43;;;;;;;10.28;100.00;100992.19;5014655;28;20274;-71
2024/03/14 08:00:08;;;;;;;26.63;17.50;;;;;;;10.36;100.00;100988.75;5013480;28;20218;-71
2024/03/14 08:02:34;;;;;;;23.57;15.57;;;;;;;10.47;100.00;100997.91;5013427;28;20203;-71
2024/03/14 08:05:06;;;;;;;25.87;15.60;;;;;;;10.58;100.00;100996.50;5012317;28;20644;-71
2024/03/14 08:07:33;;;;;;;27.13;18.20;;;;;;;10.70;100.00;100996.59;5012991;28;20200;-71
2024/03/14 08:09:59;;;;;;;25.43;16.37;;;;;;;10.83;100.00;101000.13;5010904;28;20698;-71
2024/03/14 08:12:31;;;;;;;29.73;16.13;;;;;;;10.91;100.00;101008.03;5028318;28;20307;-71
2024/03/14 08:15:10;;;;;;;27.20;16.20;;;;;;;11.02;100.00;101003.19;5009720;28;20215;-71
2024/03/14 08:17:37;;;;;;;30.40;17.57;;;;;;;11.13;100.00;101010.41;5012342;28;20199;-72
2024/03/14 08:20:07;;;;;;;32.90;18.37;;;;;;;11.22;100.00;101003.22;5009685;28;20204;-71
2024/03/14 08:22:35;;;;;;;35.37;20.93;;;;;;;11.32;100.00;101010.78;5012033;28;20216;-71
2024/03/14 08:25:03;;;;;;;28.80;16.50;;;;;;;11.41;100.00;101011.53;5011248;28;20691;-71
2024/03/14 08:27:30;;;;;;;29.83;17.43;;;;;;;11.51;100.00;101007.72;5007439;28;20568;-71
2024/03/14 08:29:56;;;;;;;30.03;17.47;;;;;;;11.60;100.00;101011.13;4992108;28;20226;-71
2024/03/14 08:32:23;;;;;;;28.90;16.47;;;;;;;11.71;100.00;101007.00;5010322;28;20200;-71
2024/03/14 08:34:49;;;;;;;20.93;12.87;;;;;;;11.82;100.00;101008.16;5010236;28;20227;-71
2024/03/14 08:37:16;;;;;;;22.27;12.90;;;;;;;11.91;100.00;101011.53;5009732;28;20208;-72
2024/03/14 08:39:49;;;;;;;19.97;11.93;;;;;;;12.01;100.00;101011.16;5010925;28;20230;-71
2024/03/14 08:42:31;;;;;;;23.73;12.97;;;;;;;12.08;100.00;101021.97;5008655;28;20244;-71
2024/03/14 08:45:00;;;;;;;23.20;13.27;;;;;;;12.13;100.00;101013.84;5017268;28;20220;-71
2024/03/14 08:47:27;;;;;;;19.53;12.90;;;;;;;12.17;100.00;101014.75;5014032;28;20262;-71
2024/03/14 08:49:53;;;;;;;18.97;11.17;;;;;;;12.20;100.00;101022.03;5008063;28;20204;-71
2024/03/14 08:56:10;;;;;;;19.40;11.43;;;;;;;12.26;100.00;101023.41;5039133;28;20220;-71
2024/03/14 08:58:37;;;;;;;20.53;12.50;;;;;;;12.27;100.00;101017.00;5006276;28;20220;-71
2024/03/14 09:01:05;;;;;;;18.07;11.77;;;;;;;12.28;100.00;101018.53;5008990;28;20195;-71
2024/03/14 09:03:31;;;;;;;17.07;11.20;;;;;;;12.32;100.00;101028.13;5008255;28;20208;-71
2024/03/14 09:06:00;;;;;;;18.63;11.47;;;;;;;12.33;100.00;101016.47;4993540;28;20229;-71
2024/03/14 09:08:27;;;;;;;18.87;11.67;;;;;;;12.36;100.00;101018.44;5012944;28;20206;-71
2024/03/14 09:10:54;;;;;;;18.47;11.30;;;;;;;12.38;100.00;101013.59;5010877;28;20200;-71
2024/03/14 09:13:20;;;;;;;17.83;11.20;;;;;;;12.41;100.00;101023.53;5006459;28;20204;-71
2024/03/14 09:15:50;;;;;;;18.20;11.10;;;;;;;12.43;100.00;101028.53;5008542;28;20223;-71
2024/03/14 09:18:17;;;;;;;17.13;11.13;;;;;;;12.43;100.00;101023.97;5006299;28;20243;-71
2024/03/14 09:20:48;;;;;;;18.70;10.87;;;;;;;12.46;100.00;101023.34;5009538;28;20275;-71
2024/03/14 09:23:19;;;;;;;17.63;10.73;;;;;;;12.45;100.00;101021.78;5010649;28;20264;-71
2024/03/14 09:25:46;;;;;;;20.23;10.83;;;;;;;12.47;100.00;101030.19;5004613;28;20231;-71
2024/03/14 09:28:12;;;;;;;17.33;11.10;;;;;;;12.47;100.00;101021.47;5006027;28;20197;-71
2024/03/14 09:30:42;;;;;;;17.23;10.23;;;;;;;12.45;100.00;101023.66;5007672;28;20193;-71
2024/03/14 09:33:08;;;;;;;20.67;11.20;;;;;;;12.45;100.00;101018.38;5022534;28;20209;-72
2024/03/14 09:35:41;;;;;;;18.60;11.40;;;;;;;12.46;100.00;101026.00;5007476;28;20217;-71
2024/03/14 09:38:07;;;;;;;19.23;11.37;;;;;;;12.49;100.00;101024.56;5008041;28;20206;-71
2024/03/14 09:40:34;;;;;;;16.73;11.30;;;;;;;12.49;100.00;101021.91;5005095;28;20210;-71
2024/03/14 09:43:01;;;;;;;19.13;11.60;;;;;;;12.51;100.00;101022.34;5013802;28;20563;-71
2024/03/14 09:45:28;;;;;;;17.03;11.20;;;;;;;12.55;100.00;101017.94;5012472;28;20236;-71
2024/03/14 09:47:56;;;;;;;19.77;11.53;;;;;;;12.60;100.00;101020.41;5010916;28;20581;-71
2024/03/14 09:50:23;;;;;;;20.67;11.93;;;;;;;12.67;100.00;101023.28;5010174;28;20207;-71
2024/03/14 09:52:50;;;;;;;19.27;12.60;;;;;;;12.75;100.00;101019.78;5001477;28;20210;-71
2024/03/14 09:55:17;;;;;;;23.43;14.50;;;;;;;12.86;100.00;101026.97;5009901;28;20222;-71
2024/03/14 09:57:45;;;;;;;20.73;13.13;;;;;;;12.95;100.00;101019.66;5009330;28;20255;-71
2024/03/14 10:00:12;;;;;;;18.53;11.10;;;;;;;13.06;100.00;101022.72;5006467;28;20741;-72
2024/03/14 10:02:40;;;;;;;17.00;10.87;;;;;;;13.12;100.00;101024.81;5009646;28;20283;-71
2024/03/14 10:05:10;;;;;;;17.23;10.47;;;;;;;13.16;100.00;101025.72;5021944;28;20217;-72
2024/03/14 10:07:37;;;;;;;18.50;11.10;;;;;;;13.20;100.00;101029.22;5011806;28;20200;-72
2024/03/14 10:10:06;;;;;;;18.37;12.20;;;;;;;13.22;100.00;101026.25;5011999;28;20662;-71
2024/03/14 10:12:33;;;;;;;17.47;10.80;;;;;;;13.22;100.00;101031.53;5009512;28;20659;-71
2024/03/14 10:22:35;;;;;;;18.30;11.23;;;;;;;13.37;100.00;101022.94;5030881;28;20869;-71
2024/03/14 10:25:03;;;;;;;19.30;11.33;;;;;;;13.41;100.00;101027.22;5026884;28;20224;-71
2024/03/14 10:27:30;;;;;;;19.43;11.57;;;;;;;13.46;100.00;101020.94;5012811;28;20200;-71
2024/03/14 10:29:57;;;;;;;18.47;11.37;;;;;;;13.50;100.00;101030.53;4997673;28;20200;-72
2024/03/14 10:32:24;;;;;;;17.67;11.40;;;;;;;13.53;100.00;101034.41;5015041;28;20253;-72
2024/03/14 10:34:51;;;;;;;16.80;10.83;;;;;;;13.56;100.00;101026.56;5027906;28;20754;-73
2024/03/14 10:37:18;;;;;;;17.37;10.27;;;;;;;13.59;100.00;101025.91;4995898;28;20211;-72
2024/03/14 10:39:45;;;;;;;18.00;10.40;;;;;;;13.62;100.00;101021.81;5013675;28;20215;-72
2024/03/14 10:42:14;;;;;;;17.80;11.07;;;;;;;13.62;100.00;101017.25;5012946;28;20700;-72
2024/03/14 10:44:42;;;;;;;18.03;10.20;;;;;;;13.64;100.00;101016.91;5011781;28;20239;-72
2024/03/14 10:47:09;;;;;;;16.67;9.60;;;;;;;13.65;100.00;101018.47;5012204;28;20555;-72
2024/03/14 10:49:37;;;;;;;17.17;11.10;;;;;;;13.65;100.00;101021.91;5011668;28;20515;-72
2024/03/14 10:52:04;;;;;;;16.23;10.20;;;;;;;13.62;100.00;101014.59;5012021;28;20611;-72
2024/03/14 10:54:31;;;;;;;20.40;10.93;;;;;;;13.64;100.00;101007.09;5010602;28;20227;-72
2024/03/14 10:56:57;;;;;;;15.67;10.33;;;;;;;13.63;100.00;101012.72;5017347;28;20203;-72
2024/03/14 10:59:24;;;;;;;18.47;10.53;;;;;;;13.63;100.00;101002.09;5009701;28;20589;-72
2024/03/14 11:01:53;;;;;;;17.63;10.93;;;;;;;13.68;100.00;100997.34;5014337;28;20815;-72
2024/03/14 11:04:20;;;;;;;18.87;10.87;;;;;;;13.73;100.00;100999.00;5016308;28;20302;-72
2024/03/14 11:06:47;;;;;;;20.57;12.33;;;;;;;13.79;100.00;100997.66;5009644;28;20698;-72
2024/03/14 11:09:15;;;;;;;24.67;13.37;;;;;;;13.86;100.00;100989.88;5008305;28;20193;-72
2024/03/14 11:11:41;;;;;;;18.97;11.73;;;;;;;13.94;100.00;100987.09;5022573;28;20234;-72
2024/03/14 11:14:11;;;;;;;19.47;11.50;;;;;;;14.03;100.00;100981.66;5013080;28;20219;-72
2024/03/14 11:16:39;;;;;;;18.87;11.47;;;;;;;14.12;100.00;100987.59;5010647;28;20200;-72
2024/03/14 11:19:05;;;;;;;19.50;11.70;;;;;;;14.21;100.00;100983.69;5012647;28;20303;-72
2024/03/14 11:21:34;;;;;;;22.13;12.27;;;;;;;14.33;100.00;100978.31;5008242;28;20200;-72
2024/03/14 11:24:00;;;;;;;20.43;12.03;;;;;;;14.41;100.00;100989.91;5008279;28;20261;-72
2024/03/14 11:26:27;;;;;;;17.87;11.17;;;;;;;14.51;100.00;100984.88;5012591;28;20204;-72
2024/03/14 11:29:02;;;;;;;21.30;13.07;;;;;;;14.63;100.00;100986.66;5008708;28;20655;-72
2024/03/14 11:31:37;;;;;;;20.80;12.43;;;;;;;14.75;100.00;100983.94;5009671;28;20622;-72
2024/03/14 11:34:03;;;;;;;17.80;12.07;;;;;;;14.83;100.00;100978.44;5041453;28;20208;-72
2024/03/14 11:36:30;;;;;;;21.57;12.43;;;;;;;14.90;100.00;100978.59;5011284;28;20206;-72
2024/03/14 11:39:13;;;;;;;21.73;12.10;;;;;;;14.98;100.00;100979.56;5010742;28;20687;-72